createdAt,value
2019-03-19T00:00:03.848Z,1.38
2019-03-19T00:01:03.825Z,1.42
2019-03-19T00:02:03.663Z,1.36
2019-03-19T00:03:03.581Z,1.42
2019-03-19T00:04:10.533Z,1.32
2019-03-19T00:05:03.398Z,1.29
2019-03-19T00:06:03.343Z,1.29
2019-03-19T00:07:03.220Z,1.31
2019-03-19T00:08:03.161Z,1.26
2019-03-19T00:09:03.060Z,1.29
2019-03-19T00:10:03.987Z,1.24
2019-03-19T00:11:02.869Z,1.26
2019-03-19T00:12:02.872Z,1.20
2019-03-19T00:13:02.693Z,1.26
2019-03-19T00:14:02.617Z,1.29
2019-03-19T00:15:02.511Z,1.21
2019-03-19T00:16:02.488Z,1.25
2019-03-19T00:17:02.348Z,1.20
2019-03-19T00:18:02.274Z,1.08
2019-03-19T00:19:02.173Z,1.10
2019-03-19T00:20:02.111Z,1.11
2019-03-19T00:21:02.024Z,1.11
2019-03-19T00:22:01.899Z,1.13
2019-03-19T00:23:01.805Z,1.16
2019-03-19T00:24:01.733Z,1.04
2019-03-19T00:25:01.759Z,1.00
2019-03-19T00:26:01.541Z,1.02
2019-03-19T00:27:01.449Z,0.99
2019-03-19T00:28:01.447Z,1.00
2019-03-19T00:29:01.292Z,0.99
2019-03-19T00:30:01.259Z,0.90
2019-03-19T00:31:01.104Z,0.96
2019-03-19T00:32:02.116Z,0.96
2019-03-19T00:33:00.924Z,0.92
2019-03-19T00:34:00.846Z,0.95
2019-03-19T00:35:00.784Z,0.98
2019-03-19T00:36:00.655Z,0.95
2019-03-19T00:37:00.576Z,0.99
2019-03-19T00:38:00.597Z,1.06
2019-03-19T00:39:00.402Z,1.08
2019-03-19T00:40:00.353Z,1.06
2019-03-19T00:41:00.311Z,1.06
2019-03-19T00:42:00.128Z,1.04
2019-03-19T00:43:01.141Z,1.04
2019-03-19T00:43:59.956Z,1.07
2019-03-19T00:44:59.976Z,0.93
2019-03-19T00:45:59.770Z,0.99
2019-03-19T00:46:59.736Z,0.92
2019-03-19T00:47:59.632Z,0.90
2019-03-19T00:48:59.503Z,0.95
2019-03-19T00:49:59.478Z,0.93
2019-03-19T00:50:59.324Z,0.88
2019-03-19T00:51:59.243Z,0.89
2019-03-19T00:52:59.268Z,0.84
2019-03-19T00:53:59.061Z,0.81
2019-03-19T00:54:58.981Z,0.81
2019-03-19T00:55:58.978Z,0.80
2019-03-19T00:56:58.793Z,0.80
2019-03-19T00:57:58.740Z,0.78
2019-03-19T00:58:58.695Z,0.82
2019-03-19T00:59:58.540Z,0.75
2019-03-19T01:00:58.440Z,0.80
2019-03-19T01:01:58.402Z,0.84
2019-03-19T01:02:58.268Z,0.84
2019-03-19T01:03:58.175Z,0.90
2019-03-19T01:04:58.101Z,0.86
2019-03-19T01:05:58.020Z,0.89
2019-03-19T01:06:57.912Z,0.89
2019-03-19T01:07:57.821Z,0.95
2019-03-19T01:08:57.729Z,0.93
2019-03-19T01:09:57.674Z,0.92
2019-03-19T01:10:57.557Z,0.88
2019-03-19T01:11:57.466Z,0.78
2019-03-19T01:12:57.456Z,0.82
2019-03-19T01:13:57.291Z,0.86
2019-03-19T01:14:57.213Z,0.92
2019-03-19T01:15:57.170Z,0.84
2019-03-19T01:16:57.019Z,0.81
2019-03-19T01:17:56.979Z,0.86
2019-03-19T01:18:56.842Z,0.75
2019-03-19T01:19:56.821Z,0.74
2019-03-19T01:20:56.679Z,0.70
2019-03-19T01:21:56.598Z,0.72
2019-03-19T01:22:56.487Z,0.63
2019-03-19T01:23:56.505Z,0.64
2019-03-19T01:24:56.324Z,0.62
2019-03-19T01:25:56.288Z,0.62
2019-03-19T01:26:56.223Z,0.57
2019-03-19T01:27:56.051Z,0.63
2019-03-19T01:28:55.956Z,0.52
2019-03-19T01:29:55.964Z,0.56
2019-03-19T01:30:55.780Z,0.64
2019-03-19T01:31:55.742Z,0.44
2019-03-19T01:32:55.600Z,0.44
2019-03-19T01:33:55.549Z,0.41
2019-03-19T01:34:55.436Z,0.56
2019-03-19T01:35:55.362Z,0.52
2019-03-19T01:36:55.250Z,0.71
2019-03-19T01:37:55.173Z,0.53
2019-03-19T01:38:55.064Z,0.59
2019-03-19T01:39:54.993Z,0.59
2019-03-19T01:40:54.984Z,0.62
2019-03-19T01:41:54.802Z,0.62
2019-03-19T01:42:54.710Z,0.56
2019-03-19T01:43:54.699Z,0.52
2019-03-19T01:44:54.547Z,0.68
2019-03-19T01:45:54.450Z,0.57
2019-03-19T01:46:54.411Z,0.68
2019-03-19T01:47:54.270Z,0.59
2019-03-19T01:48:54.179Z,0.67
2019-03-19T01:49:54.158Z,0.62
2019-03-19T01:50:54.000Z,0.62
2019-03-19T01:51:53.935Z,0.67
2019-03-19T01:52:53.825Z,0.57
2019-03-19T01:53:53.852Z,0.67
2019-03-19T01:54:53.661Z,0.57
2019-03-19T01:56:01.152Z,0.51
2019-03-19T01:56:53.469Z,0.51
2019-03-19T01:57:53.466Z,0.52
2019-03-19T01:58:53.289Z,0.40
2019-03-19T01:59:53.214Z,0.51
2019-03-19T02:00:53.183Z,0.48
2019-03-19T02:01:53.023Z,0.53
2019-03-19T02:02:52.937Z,0.45
2019-03-19T02:03:52.891Z,0.43
2019-03-19T02:04:52.772Z,0.45
2019-03-19T02:05:52.672Z,0.53
2019-03-19T02:06:52.604Z,0.34
2019-03-19T02:07:52.489Z,0.40
2019-03-19T02:08:52.400Z,0.35
2019-03-19T02:09:52.336Z,0.34
2019-03-19T02:10:52.249Z,0.51
2019-03-19T02:11:52.233Z,0.35
2019-03-19T02:12:52.097Z,0.40
2019-03-19T02:13:52.044Z,0.44
2019-03-19T02:14:51.879Z,0.31
2019-03-19T02:15:51.854Z,0.31
2019-03-19T02:16:51.691Z,0.38
2019-03-19T02:17:51.663Z,0.34
2019-03-19T02:18:51.512Z,0.35
2019-03-19T02:19:51.499Z,0.34
2019-03-19T02:20:51.333Z,0.34
2019-03-19T02:21:51.244Z,0.31
2019-03-19T02:22:51.181Z,0.33
2019-03-19T02:23:51.076Z,0.37
2019-03-19T02:24:50.993Z,0.26
2019-03-19T02:25:50.932Z,0.33
2019-03-19T02:26:50.804Z,0.25
2019-03-19T02:27:50.813Z,0.31
2019-03-19T02:28:50.621Z,0.38
2019-03-19T02:29:51.640Z,0.35
2019-03-19T02:30:50.462Z,0.34
2019-03-19T02:31:50.426Z,0.30
2019-03-19T02:32:50.267Z,0.38
2019-03-19T02:33:50.248Z,0.40
2019-03-19T02:34:50.089Z,0.34
2019-03-19T02:35:50.023Z,0.33
2019-03-19T02:36:49.911Z,0.25
2019-03-19T02:37:49.852Z,0.25
2019-03-19T02:38:49.734Z,0.22
2019-03-19T02:39:49.659Z,0.20
2019-03-19T02:40:49.575Z,0.19
2019-03-19T02:41:49.467Z,0.20
2019-03-19T02:42:49.478Z,0.23
2019-03-19T02:43:49.289Z,0.22
2019-03-19T02:44:49.213Z,0.25
2019-03-19T02:45:49.219Z,0.10
2019-03-19T02:46:49.018Z,0.13
2019-03-19T02:47:48.999Z,0.02
2019-03-19T02:48:48.847Z,0.01
2019-03-19T02:49:48.808Z,0.13
2019-03-19T02:50:48.678Z,0.15
2019-03-19T02:51:48.620Z,0.17
2019-03-19T02:52:48.484Z,0.15
2019-03-19T02:53:48.429Z,0.23
2019-03-19T02:54:48.312Z,0.23
2019-03-19T02:55:48.271Z,0.13
2019-03-19T02:56:48.130Z,0.02
2019-03-19T02:57:48.154Z,0.04
2019-03-19T02:58:47.951Z,0.12
2019-03-19T02:59:47.960Z,0.10
2019-03-19T03:00:47.800Z,0.12
2019-03-19T03:01:47.691Z,0.05
2019-03-19T03:02:47.674Z,0.12
2019-03-19T03:03:47.509Z,0.01
2019-03-19T03:04:47.416Z,0.10
2019-03-19T03:05:47.421Z,0.08
2019-03-19T03:06:47.236Z,0.07
2019-03-19T03:07:47.177Z,0.04
2019-03-19T03:08:47.104Z,-0.05
2019-03-19T03:09:46.972Z,-0.02
2019-03-19T03:10:46.909Z,-0.01
2019-03-19T03:11:46.807Z,-0.06
2019-03-19T03:12:46.707Z,-0.02
2019-03-19T03:13:46.637Z,-0.06
2019-03-19T03:14:46.648Z,-0.01
2019-03-19T03:15:46.450Z,-0.06
2019-03-19T03:16:46.353Z,-0.01
2019-03-19T03:17:46.340Z,-0.06
2019-03-19T03:18:46.173Z,-0.05
2019-03-19T03:19:46.080Z,0.02
2019-03-19T03:20:46.178Z,0.01
2019-03-19T03:21:45.905Z,0.01
2019-03-19T03:22:45.816Z,0.04
2019-03-19T03:23:45.767Z,-0.02
2019-03-19T03:24:45.639Z,-0.03
2019-03-19T03:25:45.564Z,-0.05
2019-03-19T03:26:48.184Z,0.01
2019-03-19T03:27:45.375Z,0.04
2019-03-19T03:28:45.284Z,-0.01
2019-03-19T03:29:45.294Z,-0.02
2019-03-19T03:30:45.117Z,0.10
2019-03-19T03:31:45.009Z,0.01
2019-03-19T03:32:45.024Z,0.05
2019-03-19T03:33:44.837Z,0.01
2019-03-19T03:34:44.819Z,-0.03
2019-03-19T03:35:44.665Z,-0.08
2019-03-19T03:36:44.627Z,-0.03
2019-03-19T03:37:44.474Z,0.05
2019-03-19T03:38:44.435Z,0.04
2019-03-19T03:39:44.297Z,-0.08
2019-03-19T03:40:44.228Z,0.01
2019-03-19T03:41:44.151Z,-0.01
2019-03-19T03:42:44.032Z,-0.06
2019-03-19T03:43:43.945Z,-0.02
2019-03-19T03:44:43.966Z,-0.03
2019-03-19T03:45:43.779Z,-0.05
2019-03-19T03:46:43.674Z,-0.12
2019-03-19T03:47:43.681Z,-0.12
2019-03-19T03:48:43.494Z,0.01
2019-03-19T03:49:43.408Z,-0.03
2019-03-19T03:50:43.422Z,-0.03
2019-03-19T03:51:43.223Z,-0.08
2019-03-19T03:52:43.143Z,-0.06
2019-03-19T03:53:45.154Z,-0.03
2019-03-19T03:54:42.956Z,-0.08
2019-03-19T03:55:42.887Z,-0.12
2019-03-19T03:56:42.825Z,-0.01
2019-03-19T03:57:42.725Z,-0.06
2019-03-19T03:58:42.608Z,0.04
2019-03-19T03:59:42.511Z,0.01
2019-03-19T04:00:42.447Z,-0.19
2019-03-19T04:01:42.371Z,-0.03
2019-03-19T04:02:44.848Z,-0.05
2019-03-19T04:03:42.260Z,-0.17
2019-03-19T04:04:42.067Z,-0.13
2019-03-19T04:05:41.992Z,-0.17
2019-03-19T04:06:41.967Z,-0.13
2019-03-19T04:07:41.806Z,-0.23
2019-03-19T04:08:41.717Z,-0.27
2019-03-19T04:09:41.681Z,-0.14
2019-03-19T04:10:41.543Z,-0.26
2019-03-19T04:11:41.436Z,-0.26
2019-03-19T04:12:41.395Z,-0.30
2019-03-19T04:13:41.272Z,-0.23
2019-03-19T04:14:41.170Z,-0.20
2019-03-19T04:15:41.146Z,-0.17
2019-03-19T04:16:40.992Z,-0.13
2019-03-19T04:17:40.904Z,-0.14
2019-03-19T04:18:40.925Z,-0.17
2019-03-19T04:19:40.729Z,-0.16
2019-03-19T04:20:40.663Z,-0.08
2019-03-19T04:21:41.556Z,-0.08
2019-03-19T04:22:40.460Z,-0.30
2019-03-19T04:23:40.373Z,-0.23
2019-03-19T04:24:40.353Z,-0.24
2019-03-19T04:25:40.189Z,-0.34
2019-03-19T04:26:40.113Z,-0.30
2019-03-19T04:27:42.113Z,-0.30
2019-03-19T04:28:39.917Z,-0.31
2019-03-19T04:29:39.837Z,-0.24
2019-03-19T04:30:39.825Z,-0.24
2019-03-19T04:31:39.670Z,-0.26
2019-03-19T04:32:39.570Z,-0.26
2019-03-19T04:33:39.491Z,-0.21
2019-03-19T04:34:39.385Z,-0.26
2019-03-19T04:35:41.979Z,-0.21
2019-03-19T04:36:39.401Z,-0.27
2019-03-19T04:37:39.121Z,-0.26
2019-03-19T04:38:48.026Z,-0.27
2019-03-19T04:39:38.942Z,-0.30
2019-03-19T04:40:38.849Z,-0.38
2019-03-19T04:41:38.867Z,-0.34
2019-03-19T04:42:38.699Z,-0.38
2019-03-19T04:43:38.582Z,-0.50
2019-03-19T04:44:40.523Z,-0.47
2019-03-19T04:45:38.411Z,-0.44
2019-03-19T04:46:38.331Z,-0.50
2019-03-19T04:47:38.259Z,-0.50
2019-03-19T04:48:38.136Z,-0.44
2019-03-19T04:49:45.033Z,-0.44
2019-03-19T04:50:37.994Z,-0.34
2019-03-19T04:51:37.909Z,-0.34
2019-03-19T04:52:37.776Z,-0.31
2019-03-19T04:53:37.685Z,-0.26
2019-03-19T04:54:37.691Z,-0.21
2019-03-19T04:55:37.514Z,-0.31
2019-03-19T04:56:37.430Z,-0.23
2019-03-19T04:57:37.406Z,-0.27
2019-03-19T04:58:37.238Z,-0.24
2019-03-19T04:59:37.158Z,-0.32
2019-03-19T05:00:37.121Z,-0.32
2019-03-19T05:01:36.981Z,-0.35
2019-03-19T05:02:36.880Z,-0.30
2019-03-19T05:03:36.855Z,-0.26
2019-03-19T05:04:36.705Z,-0.31
2019-03-19T05:05:36.641Z,-0.34
2019-03-19T05:06:36.544Z,-0.37
2019-03-19T05:07:36.439Z,-0.52
2019-03-19T05:08:36.345Z,-0.44
2019-03-19T05:09:36.361Z,-0.42
2019-03-19T05:10:36.169Z,-0.42
2019-03-19T05:11:36.096Z,-0.52
2019-03-19T05:12:36.923Z,-0.49
2019-03-19T05:13:35.994Z,-0.45
2019-03-19T05:14:35.804Z,-0.52
2019-03-19T05:15:35.716Z,-0.52
2019-03-19T05:16:35.726Z,-0.42
2019-03-19T05:17:35.616Z,-0.44
2019-03-19T05:18:35.454Z,-0.38
2019-03-19T05:19:35.416Z,-0.34
2019-03-19T05:20:35.273Z,-0.35
2019-03-19T05:21:35.212Z,-0.49
2019-03-19T05:22:35.090Z,-0.47
2019-03-19T05:23:35.195Z,-0.41
2019-03-19T05:24:34.915Z,-0.37
2019-03-19T05:25:34.998Z,-0.37
2019-03-19T05:26:34.753Z,-0.37
2019-03-19T05:27:37.531Z,-0.37
2019-03-19T05:28:34.616Z,-0.32
2019-03-19T05:29:34.469Z,-0.34
2019-03-19T05:30:34.374Z,-0.38
2019-03-19T05:31:34.399Z,-0.34
2019-03-19T05:32:34.196Z,-0.42
2019-03-19T05:33:34.105Z,-0.45
2019-03-19T05:34:34.040Z,-0.49
2019-03-19T05:35:33.939Z,-0.47
2019-03-19T05:36:33.882Z,-0.44
2019-03-19T05:37:33.756Z,-0.42
2019-03-19T05:38:33.711Z,-0.45
2019-03-19T05:39:33.568Z,-0.47
2019-03-19T05:40:33.495Z,-0.44
2019-03-19T05:41:33.406Z,-0.45
2019-03-19T05:42:33.318Z,-0.42
2019-03-19T05:43:33.209Z,-0.53
2019-03-19T05:44:33.126Z,-0.56
2019-03-19T05:45:33.033Z,-0.60
2019-03-19T05:46:32.971Z,-0.59
2019-03-19T05:47:36.980Z,-0.59
2019-03-19T05:48:32.765Z,-0.59
2019-03-19T05:49:32.680Z,-0.67
2019-03-19T05:50:32.598Z,-0.58
2019-03-19T05:51:32.654Z,-0.60
2019-03-19T05:52:34.369Z,-0.52
2019-03-19T05:53:47.068Z,-0.52
2019-03-19T05:54:32.225Z,-0.42
2019-03-19T05:55:32.335Z,-0.44
2019-03-19T05:56:32.053Z,-0.47
2019-03-19T05:57:32.178Z,-0.41
2019-03-19T05:58:31.872Z,-0.44
2019-03-19T05:59:31.791Z,-0.42
2019-03-19T06:00:31.765Z,-0.44
2019-03-19T06:01:31.627Z,-0.42
2019-03-19T06:02:31.522Z,-0.55
2019-03-19T06:03:31.437Z,-0.55
2019-03-19T06:04:31.446Z,-0.44
2019-03-19T06:05:31.239Z,-0.26
2019-03-19T06:06:31.159Z,-0.20
2019-03-19T06:07:31.190Z,-0.26
2019-03-19T06:08:30.976Z,-0.23
2019-03-19T06:09:30.971Z,-0.31
2019-03-19T06:10:30.801Z,-0.16
2019-03-19T06:11:30.780Z,-0.17
2019-03-19T06:12:30.631Z,-0.09
2019-03-19T06:13:32.640Z,-0.13
2019-03-19T06:14:30.437Z,0.07
2019-03-19T06:15:30.397Z,0.02
2019-03-19T06:16:30.259Z,0.04
2019-03-19T06:17:30.241Z,-0.01
2019-03-19T06:18:35.175Z,-0.03
2019-03-19T06:19:29.992Z,-0.03
2019-03-19T06:20:29.921Z,-0.02
2019-03-19T06:21:29.809Z,-0.05
2019-03-19T06:22:29.746Z,-0.17
2019-03-19T06:23:29.741Z,-0.14
2019-03-19T06:24:29.556Z,-0.17
2019-03-19T06:25:31.491Z,-0.16
2019-03-19T06:26:29.374Z,-0.03
2019-03-19T06:27:29.390Z,0.01
2019-03-19T06:28:29.192Z,0.02
2019-03-19T06:29:29.105Z,0.04
2019-03-19T06:30:29.020Z,0.07
2019-03-19T06:31:28.925Z,0.13
2019-03-19T06:32:28.848Z,0.22
2019-03-19T06:33:28.901Z,0.33
2019-03-19T06:34:28.659Z,0.31
2019-03-19T06:35:28.567Z,0.40
2019-03-19T06:36:28.508Z,0.43
2019-03-19T06:37:28.409Z,0.51
2019-03-19T06:38:28.304Z,0.51
2019-03-19T06:39:28.221Z,0.51
2019-03-19T06:40:28.127Z,0.60
2019-03-19T06:41:28.036Z,0.78
2019-03-19T06:42:27.976Z,0.96
2019-03-19T06:43:27.863Z,1.08
2019-03-19T06:44:27.796Z,1.18
2019-03-19T06:45:27.693Z,1.34
2019-03-19T06:46:27.598Z,1.39
2019-03-19T06:47:27.531Z,1.38
2019-03-19T06:48:27.433Z,1.49
2019-03-19T06:49:27.330Z,1.50
2019-03-19T06:50:28.181Z,1.75
2019-03-19T06:51:27.158Z,1.92
2019-03-19T06:52:27.109Z,2.05
2019-03-19T06:53:26.993Z,2.23
2019-03-19T06:54:26.915Z,2.26
2019-03-19T06:55:26.818Z,2.32
2019-03-19T06:56:26.729Z,2.41
2019-03-19T06:57:26.669Z,2.44
2019-03-19T06:58:26.559Z,2.68
2019-03-19T06:59:26.468Z,2.66
2019-03-19T07:00:26.389Z,2.80
2019-03-19T07:01:26.298Z,2.95
2019-03-19T07:02:26.262Z,3.04
2019-03-19T07:03:26.137Z,3.12
2019-03-19T07:04:26.053Z,3.10
2019-03-19T07:05:25.958Z,3.12
2019-03-19T07:06:25.881Z,3.30
2019-03-19T07:07:25.794Z,3.42
2019-03-19T07:08:25.719Z,3.41
2019-03-19T07:09:25.638Z,3.54
2019-03-19T07:10:25.577Z,3.67
2019-03-19T07:11:25.452Z,3.77
2019-03-19T07:12:25.375Z,3.77
2019-03-19T07:13:25.300Z,3.80
2019-03-19T07:14:25.200Z,3.84
2019-03-19T07:15:25.125Z,3.95
2019-03-19T07:16:25.042Z,4.00
2019-03-19T07:17:24.953Z,4.13
2019-03-19T07:18:24.888Z,4.24
2019-03-19T07:19:24.786Z,4.43
2019-03-19T07:20:24.757Z,4.47
2019-03-19T07:21:24.620Z,4.43
2019-03-19T07:22:24.530Z,4.44
2019-03-19T07:23:24.473Z,4.61
2019-03-19T07:24:24.370Z,4.69
2019-03-19T07:25:24.291Z,4.79
2019-03-19T07:26:24.200Z,5.01
2019-03-19T07:27:24.123Z,4.97
2019-03-19T07:28:24.047Z,5.14
2019-03-19T07:29:23.949Z,5.22
2019-03-19T07:30:23.875Z,5.38
2019-03-19T07:31:30.906Z,5.44
2019-03-19T07:32:23.710Z,5.62
2019-03-19T07:33:23.637Z,5.67
2019-03-19T07:34:23.541Z,5.80
2019-03-19T07:35:23.473Z,5.66
2019-03-19T07:36:23.375Z,5.73
2019-03-19T07:37:23.294Z,5.84
2019-03-19T07:38:23.231Z,5.85
2019-03-19T07:39:23.125Z,5.67
2019-03-19T07:40:23.059Z,5.80
2019-03-19T07:41:22.966Z,6.08
2019-03-19T07:42:22.883Z,6.10
2019-03-19T07:43:23.821Z,6.19
2019-03-19T07:44:22.722Z,6.32
2019-03-19T07:45:22.634Z,6.33
2019-03-19T07:46:22.556Z,6.46
2019-03-19T07:47:22.477Z,6.65
2019-03-19T07:48:22.428Z,6.68
2019-03-19T07:49:22.320Z,6.90
2019-03-19T07:50:22.233Z,6.94
2019-03-19T07:51:22.154Z,7.14
2019-03-19T07:52:22.066Z,7.18
2019-03-19T07:53:22.000Z,7.16
2019-03-19T07:54:21.914Z,7.34
2019-03-19T07:55:21.836Z,7.51
2019-03-19T07:56:21.750Z,7.52
2019-03-19T07:57:21.661Z,7.81
2019-03-19T07:58:32.644Z,7.91
2019-03-19T07:59:21.505Z,7.95
2019-03-19T08:00:21.433Z,7.99
2019-03-19T08:01:21.351Z,8.10
2019-03-19T08:02:21.272Z,8.24
2019-03-19T08:03:21.200Z,8.20
2019-03-19T08:04:21.168Z,8.25
2019-03-19T08:05:21.024Z,8.17
2019-03-19T08:06:20.943Z,8.24
2019-03-19T08:07:20.866Z,8.37
2019-03-19T08:08:20.802Z,8.52
2019-03-19T08:09:20.721Z,8.45
2019-03-19T08:10:20.619Z,8.65
2019-03-19T08:11:20.547Z,8.60
2019-03-19T08:12:20.461Z,8.65
2019-03-19T08:13:20.397Z,8.71
2019-03-19T08:14:20.305Z,8.80
2019-03-19T08:15:20.226Z,8.86
2019-03-19T08:16:27.395Z,9.08
2019-03-19T08:17:20.081Z,9.01
2019-03-19T08:18:20.006Z,9.01
2019-03-19T08:19:19.955Z,8.96
2019-03-19T08:20:19.826Z,9.27
2019-03-19T08:21:19.750Z,9.34
2019-03-19T08:22:19.662Z,9.24
2019-03-19T08:23:19.599Z,9.35
2019-03-19T08:24:19.507Z,9.27
2019-03-19T08:25:19.431Z,9.35
2019-03-19T08:26:19.358Z,9.50
2019-03-19T08:27:19.274Z,9.68
2019-03-19T08:28:19.209Z,9.58
2019-03-19T08:29:19.126Z,9.59
2019-03-19T08:30:19.033Z,9.77
2019-03-19T08:31:18.949Z,9.74
2019-03-19T08:32:18.890Z,9.74
2019-03-19T08:33:18.812Z,9.81
2019-03-19T08:34:18.715Z,9.80
2019-03-19T08:35:18.639Z,9.80
2019-03-19T08:36:18.560Z,9.83
2019-03-19T08:37:18.475Z,10.14
2019-03-19T08:38:18.399Z,10.06
2019-03-19T08:39:18.335Z,10.26
2019-03-19T08:40:18.236Z,10.24
2019-03-19T08:41:18.168Z,10.28
2019-03-19T08:42:18.078Z,10.29
2019-03-19T08:43:20.267Z,10.44
2019-03-19T08:44:27.265Z,10.60
2019-03-19T08:45:17.843Z,10.52
2019-03-19T08:46:17.765Z,10.63
2019-03-19T08:47:17.684Z,10.83
2019-03-19T08:48:17.608Z,10.98
2019-03-19T08:49:17.539Z,11.03
2019-03-19T08:50:17.452Z,11.20
2019-03-19T08:51:17.383Z,11.23
2019-03-19T08:52:17.294Z,11.23
2019-03-19T08:53:17.217Z,11.17
2019-03-19T08:54:17.149Z,11.33
2019-03-19T08:55:17.055Z,11.41
2019-03-19T08:56:16.986Z,11.45
2019-03-19T08:57:16.901Z,11.49
2019-03-19T08:58:16.832Z,11.79
2019-03-19T08:59:16.765Z,11.79
2019-03-19T09:00:17.938Z,11.69
2019-03-19T09:01:16.591Z,11.82
2019-03-19T09:02:16.527Z,11.85
2019-03-19T09:03:16.435Z,12.03
2019-03-19T09:04:16.368Z,12.04
2019-03-19T09:05:16.286Z,12.08
2019-03-19T09:06:16.205Z,12.13
2019-03-19T09:07:16.131Z,12.08
2019-03-19T09:08:16.046Z,12.26
2019-03-19T09:09:16.031Z,12.41
2019-03-19T09:10:15.894Z,12.44
2019-03-19T09:11:15.814Z,12.56
2019-03-19T09:12:15.742Z,12.36
2019-03-19T09:13:15.673Z,12.38
2019-03-19T09:14:15.597Z,12.54
2019-03-19T09:15:15.516Z,12.43
2019-03-19T09:16:15.433Z,12.38
2019-03-19T09:17:15.369Z,12.38
2019-03-19T09:18:16.186Z,12.37
2019-03-19T09:19:15.213Z,12.43
2019-03-19T09:20:15.128Z,12.11
2019-03-19T09:21:15.064Z,12.21
2019-03-19T09:22:15.192Z,12.29
2019-03-19T09:23:14.902Z,12.18
2019-03-19T09:24:14.834Z,12.26
2019-03-19T09:25:14.750Z,12.30
2019-03-19T09:26:14.670Z,12.29
2019-03-19T09:27:14.594Z,12.44
2019-03-19T09:28:14.583Z,12.58
2019-03-19T09:29:17.050Z,12.52
2019-03-19T09:30:14.358Z,12.74
2019-03-19T09:31:14.290Z,12.80
2019-03-19T09:32:14.212Z,12.88
2019-03-19T09:33:14.139Z,12.69
2019-03-19T09:34:14.072Z,12.63
2019-03-19T09:35:13.985Z,12.44
2019-03-19T09:36:13.899Z,12.30
2019-03-19T09:37:13.822Z,12.46
2019-03-19T09:38:13.760Z,12.54
2019-03-19T09:39:13.746Z,12.59
2019-03-19T09:40:13.594Z,12.79
2019-03-19T09:41:13.528Z,12.89
2019-03-19T09:42:13.447Z,12.99
2019-03-19T09:43:13.369Z,13.04
2019-03-19T09:44:13.314Z,13.07
2019-03-19T09:45:13.215Z,13.12
2019-03-19T09:46:13.132Z,13.14
2019-03-19T09:47:13.067Z,12.94
2019-03-19T09:48:12.990Z,12.96
2019-03-19T09:49:12.922Z,12.62
2019-03-19T09:50:12.858Z,12.41
2019-03-19T09:51:12.761Z,12.25
2019-03-19T09:52:12.683Z,12.18
2019-03-19T09:53:12.600Z,12.25
2019-03-19T09:54:12.546Z,12.26
2019-03-19T09:55:12.505Z,12.52
2019-03-19T09:56:12.412Z,12.63
2019-03-19T09:57:13.708Z,12.89
2019-03-19T09:58:12.232Z,12.92
2019-03-19T09:59:12.158Z,13.12
2019-03-19T10:00:12.067Z,13.39
2019-03-19T10:01:11.995Z,13.35
2019-03-19T10:02:11.914Z,13.50
2019-03-19T10:03:11.845Z,13.53
2019-03-19T10:04:11.776Z,13.57
2019-03-19T10:05:11.685Z,13.66
2019-03-19T10:06:14.373Z,13.69
2019-03-19T10:07:11.526Z,13.65
2019-03-19T10:08:11.458Z,13.87
2019-03-19T10:09:11.388Z,13.44
2019-03-19T10:10:11.306Z,13.39
2019-03-19T10:11:11.277Z,13.13
2019-03-19T10:12:11.151Z,13.10
2019-03-19T10:13:11.071Z,13.07
2019-03-19T10:14:11.029Z,13.39
2019-03-19T10:15:10.917Z,13.63
2019-03-19T10:16:10.841Z,13.76
2019-03-19T10:17:10.776Z,13.88
2019-03-19T10:18:10.688Z,13.93
2019-03-19T10:19:10.616Z,13.94
2019-03-19T10:20:10.553Z,14.05
2019-03-19T10:21:10.463Z,14.26
2019-03-19T10:22:10.393Z,14.05
2019-03-19T10:23:10.319Z,13.88
2019-03-19T10:24:10.243Z,13.79
2019-03-19T10:25:10.181Z,13.73
2019-03-19T10:26:10.079Z,13.98
2019-03-19T10:27:10.015Z,13.72
2019-03-19T10:28:09.927Z,13.79
2019-03-19T10:29:09.861Z,13.96
2019-03-19T10:30:09.786Z,14.17
2019-03-19T10:31:09.706Z,14.20
2019-03-19T10:32:09.638Z,14.38
2019-03-19T10:33:09.547Z,14.36
2019-03-19T10:34:09.486Z,14.19
2019-03-19T10:35:09.415Z,14.42
2019-03-19T10:36:09.322Z,14.63
2019-03-19T10:37:09.242Z,14.63
2019-03-19T10:38:09.174Z,14.49
2019-03-19T10:39:09.309Z,14.34
2019-03-19T10:40:09.031Z,14.66
2019-03-19T10:41:08.950Z,14.64
2019-03-19T10:42:08.866Z,14.75
2019-03-19T10:43:08.794Z,14.94
2019-03-19T10:44:08.722Z,14.91
2019-03-19T10:45:08.655Z,14.79
2019-03-19T10:46:08.564Z,14.69
2019-03-19T10:47:08.494Z,14.79
2019-03-19T10:48:08.419Z,14.72
2019-03-19T10:49:08.348Z,14.67
2019-03-19T10:50:08.277Z,14.34
2019-03-19T10:51:08.196Z,14.26
2019-03-19T10:52:08.114Z,14.48
2019-03-19T10:53:08.042Z,14.31
2019-03-19T10:54:07.962Z,14.30
2019-03-19T10:55:07.906Z,14.29
2019-03-19T10:56:07.809Z,14.64
2019-03-19T10:57:07.738Z,14.75
2019-03-19T10:58:11.273Z,14.90
2019-03-19T10:59:07.580Z,14.94
2019-03-19T11:00:07.520Z,14.87
2019-03-19T11:01:07.439Z,14.71
2019-03-19T11:02:07.358Z,14.48
2019-03-19T11:03:07.291Z,14.27
2019-03-19T11:04:07.205Z,14.21
2019-03-19T11:05:07.150Z,14.23
2019-03-19T11:06:07.053Z,14.12
2019-03-19T11:07:06.988Z,14.39
2019-03-19T11:08:06.917Z,14.61
2019-03-19T11:09:06.830Z,14.11
2019-03-19T11:10:06.771Z,14.11
2019-03-19T11:11:06.679Z,14.35
2019-03-19T11:12:06.602Z,14.66
2019-03-19T11:13:06.528Z,14.72
2019-03-19T11:14:06.450Z,14.63
2019-03-19T11:15:06.385Z,14.93
2019-03-19T11:16:06.301Z,14.97
2019-03-19T11:17:06.231Z,14.83
2019-03-19T11:18:06.144Z,14.75
2019-03-19T11:19:06.074Z,14.67
2019-03-19T11:20:06.008Z,14.52
2019-03-19T11:21:05.923Z,14.39
2019-03-19T11:22:05.843Z,14.39
2019-03-19T11:23:05.765Z,14.49
2019-03-19T11:24:05.701Z,14.36
2019-03-19T11:25:05.632Z,14.36
2019-03-19T11:26:05.542Z,14.39
2019-03-19T11:27:05.477Z,14.74
2019-03-19T11:28:05.386Z,14.74
2019-03-19T11:29:05.311Z,14.91
2019-03-19T11:30:06.595Z,15.09
2019-03-19T11:31:05.164Z,15.13
2019-03-19T11:32:05.085Z,15.09
2019-03-19T11:33:05.026Z,15.20
2019-03-19T11:34:04.928Z,15.23
2019-03-19T11:35:04.878Z,15.23
2019-03-19T11:36:04.789Z,15.33
2019-03-19T11:37:04.706Z,15.51
2019-03-19T11:38:04.627Z,15.28
2019-03-19T11:39:04.564Z,15.34
2019-03-19T11:40:04.475Z,14.94
2019-03-19T11:41:04.415Z,15.25
2019-03-19T11:42:04.332Z,15.28
2019-03-19T11:43:04.248Z,15.27
2019-03-19T11:44:04.174Z,15.28
2019-03-19T11:45:04.100Z,15.15
2019-03-19T11:46:04.039Z,15.28
2019-03-19T11:47:03.955Z,15.37
2019-03-19T11:48:03.876Z,14.94
2019-03-19T11:49:03.818Z,14.93
2019-03-19T11:50:03.725Z,15.04
2019-03-19T11:51:03.690Z,15.23
2019-03-19T11:52:03.580Z,15.31
2019-03-19T11:53:03.522Z,15.38
2019-03-19T11:54:03.431Z,15.23
2019-03-19T11:55:03.336Z,15.23
2019-03-19T11:56:03.273Z,15.25
2019-03-19T11:57:04.039Z,15.28
2019-03-19T11:58:03.112Z,15.31
2019-03-19T11:59:03.048Z,15.37
2019-03-19T12:00:11.035Z,15.33
2019-03-19T12:01:02.905Z,15.30
2019-03-19T12:02:02.813Z,15.40
2019-03-19T12:03:11.421Z,15.53
2019-03-19T12:04:02.654Z,15.68
2019-03-19T12:05:02.581Z,15.40
2019-03-19T12:06:02.517Z,15.40
2019-03-19T12:07:02.436Z,15.35
2019-03-19T12:08:02.372Z,15.34
2019-03-19T12:09:02.275Z,15.49
2019-03-19T12:10:02.205Z,15.46
2019-03-19T12:11:02.139Z,15.38
2019-03-19T12:12:02.060Z,15.27
2019-03-19T12:13:01.971Z,15.31
2019-03-19T12:14:01.900Z,15.37
2019-03-19T12:15:01.818Z,15.44
2019-03-19T12:16:01.775Z,15.38
2019-03-19T12:17:01.670Z,15.55
2019-03-19T12:18:01.604Z,15.68
2019-03-19T12:19:01.516Z,15.85
2019-03-19T12:20:01.452Z,15.92
2019-03-19T12:21:01.378Z,15.99
2019-03-19T12:22:01.303Z,16.23
2019-03-19T12:23:01.211Z,16.13
2019-03-19T12:24:01.146Z,15.27
2019-03-19T12:25:01.065Z,14.59
2019-03-19T12:26:01.004Z,14.09
2019-03-19T12:27:00.915Z,13.86
2019-03-19T12:28:00.831Z,13.47
2019-03-19T12:29:00.757Z,13.50
2019-03-19T12:30:00.681Z,13.73
2019-03-19T12:31:00.627Z,14.01
2019-03-19T12:32:00.528Z,14.46
2019-03-19T12:33:00.442Z,14.39
2019-03-19T12:34:00.371Z,14.66
2019-03-19T12:35:01.719Z,14.98
2019-03-19T12:36:00.456Z,15.38
2019-03-19T12:37:00.137Z,15.80
2019-03-19T12:38:00.052Z,16.03
2019-03-19T12:38:59.978Z,16.08
2019-03-19T12:39:59.904Z,16.33
2019-03-19T12:40:59.841Z,16.41
2019-03-19T12:41:59.743Z,16.72
2019-03-19T12:42:59.686Z,16.91
2019-03-19T12:43:59.598Z,16.63
2019-03-19T12:44:59.518Z,16.66
2019-03-19T12:45:59.520Z,16.59
2019-03-19T12:46:59.372Z,16.40
2019-03-19T12:47:59.283Z,16.52
2019-03-19T12:48:59.216Z,16.30
2019-03-19T12:49:59.132Z,16.40
2019-03-19T12:50:59.071Z,16.23
2019-03-19T12:51:58.985Z,16.41
2019-03-19T12:52:58.904Z,16.41
2019-03-19T12:53:58.821Z,16.52
2019-03-19T12:54:58.823Z,16.41
2019-03-19T12:55:58.683Z,16.17
2019-03-19T12:56:59.169Z,16.13
2019-03-19T12:58:01.094Z,16.18
2019-03-19T12:58:58.469Z,16.26
2019-03-19T12:59:58.376Z,15.98
2019-03-19T13:00:58.347Z,16.03
2019-03-19T13:01:58.213Z,16.18